Flight Track Log - Related Links

Times and Time Zones

All times are in EDT time to prevent confusion due to time zone crossing. See the THY1614 flight status page for this flight to view local times or setup timezone preferences in your user account.

Time Position Orientation Groundspeed Altitude Reporting Facility
EDT Latitude Longitude Course Direction KTS MPH feet Rate Location/Type
Wed 05:00:00 PM 49.3968 10.6469 114° Southeast  Level Estimated
Wed 05:01:00 PM 49.3468 10.8064 116° Southeast  Level Estimated
Wed 05:02:00 PM 49.2966 10.9657 116° Southeast  Level Estimated
Wed 05:03:00 PM 49.2461 11.1246 116° Southeast  Level Estimated
Wed 05:04:00 PM 49.1955 11.2832 116° Southeast  Level Estimated
Wed 05:05:00 PM 49.1446 11.4414 116° Southeast  Level Estimated
Wed 05:06:00 PM 49.0935 11.5994 116° Southeast  Level Estimated
Wed 05:07:00 PM 49.0422 11.7570 116° Southeast  Level Estimated
Wed 05:08:00 PM 48.9907 11.9143 116° Southeast  Level Estimated
Wed 05:09:00 PM 48.9390 12.0712 117° Southeast  Level Estimated
Wed 05:10:00 PM 48.8871 12.2278 117° Southeast  Level Estimated
Wed 05:11:00 PM 48.8349 12.3842 117° Southeast  Level Estimated
Wed 05:12:00 PM 48.7826 12.5401 117° Southeast  Level Estimated
Wed 05:13:00 PM 48.7300 12.6958 117° Southeast  Level Estimated
Wed 05:14:00 PM 48.6772 12.8511 117° Southeast  Level Estimated
Wed 05:15:00 PM 48.6242 13.0061 117° Southeast  Level Estimated
Wed 05:16:00 PM 48.5710 13.1608 117° Southeast  Level Estimated
Wed 05:17:00 PM 48.5176 13.3152 118° Southeast  Level Estimated
Wed 05:18:00 PM 48.4640 13.4692 118° Southeast  Level Estimated
Wed 05:19:00 PM 48.4102 13.6229 118° Southeast  Level Estimated
Wed 05:20:00 PM 48.3562 13.7763 118° Southeast  Level Estimated
Wed 05:21:00 PM 48.3019 13.9293 118° Southeast  Level Estimated
Wed 05:22:00 PM 48.2475 14.0821 118° Southeast  Level Estimated
Wed 05:23:00 PM 48.1929 14.2345 118° Southeast  Level Estimated
Wed 05:24:00 PM 48.1381 14.3865 118° Southeast  Level Estimated
Wed 05:25:00 PM 48.0830 14.5383 118° Southeast  Level Estimated
Wed 05:26:00 PM 48.0278 14.6897 119° Southeast  Level Estimated
Wed 05:27:00 PM 47.9724 14.8408 119° Southeast  Level Estimated
Wed 05:28:00 PM 47.9168 14.9916 119° Southeast  Level Estimated
Wed 05:29:00 PM 47.8609 15.1420 119° Southeast  Level Estimated
Wed 05:30:00 PM 47.8049 15.2922 119° Southeast  Level Estimated
Wed 05:31:00 PM 47.7487 15.4420 119° Southeast  Level Estimated
Wed 05:32:00 PM 47.6923 15.5915 119° Southeast  Level Estimated
Wed 05:33:00 PM 47.6357 15.7406 119° Southeast  Level Estimated
Wed 05:34:00 PM 47.5789 15.8895 119° Southeast  Level Estimated
Wed 05:35:00 PM 47.5219 16.0380 120° Southeast  Level Estimated
Wed 05:36:00 PM 47.4647 16.1861 120° Southeast  Level Estimated
Wed 05:37:00 PM 47.4074 16.3340 120° Southeast  Level Estimated
Wed 05:38:00 PM 47.3498 16.4816 120° Southeast  Level Estimated
Wed 05:39:00 PM 47.2920 16.6288 120° Southeast  Level Estimated
Wed 05:40:00 PM 47.2341 16.7757 120° Southeast  Level Estimated
Wed 05:41:00 PM 47.1760 16.9223 120° Southeast  Level Estimated
Wed 05:42:00 PM 47.1177 17.0685 120° Southeast  Level Estimated
Wed 05:43:00 PM 47.0592 17.2145 120° Southeast  Level Estimated
Wed 05:44:00 PM 47.0005 17.3601 121° Southeast  Level Estimated
Wed 05:45:00 PM 46.9417 17.5054 121° Southeast  Level Estimated
Wed 05:46:00 PM 46.8826 17.6504 121° Southeast  Level Estimated
Wed 05:47:00 PM 46.8234 17.7950 121° Southeast  Level Estimated
Wed 05:48:00 PM 46.7640 17.9394 121° Southeast  Level Estimated
Wed 05:49:00 PM 46.7044 18.0834 121° Southeast  Level Estimated
Wed 05:50:00 PM 46.6446 18.2271 121° Southeast  Level Estimated
Wed 05:51:00 PM 46.5847 18.3704 121° Southeast  Level Estimated
Wed 05:52:00 PM 46.5245 18.5135 121° Southeast  Level Estimated
Wed 05:53:00 PM 46.4642 18.6563 121° Southeast  Level Estimated
Wed 05:54:00 PM 46.4037 18.7987 122° Southeast  Level Estimated
Wed 05:55:00 PM 46.3431 18.9408 122° Southeast  Level Estimated
Wed 05:56:00 PM 46.2822 19.0826 122° Southeast  Level Estimated
Wed 05:57:00 PM 46.2212 19.2241 122° Southeast  Level Estimated
Wed 05:58:00 PM 46.1600 19.3653 122° Southeast  Level Estimated
Wed 05:59:00 PM 46.0987 19.5061 122° Southeast  Level Estimated
Wed 06:00:00 PM 46.0371 19.6467 122° Southeast  Level Estimated
Wed 06:01:00 PM 45.9754 19.7869 122° Southeast  Level Estimated
Wed 06:02:00 PM 45.9136 19.9268 122° Southeast  Level Estimated
Wed 06:03:00 PM 45.8515 20.0664 123° Southeast  Level Estimated
Wed 06:04:00 PM 45.7893 20.2057 123° Southeast  Level Estimated
Wed 06:05:00 PM 45.7269 20.3447 123° Southeast  Level Estimated
Wed 06:06:00 PM 45.6644 20.4834 123° Southeast  Level Estimated
Wed 06:07:00 PM 45.6016 20.6217 123° Southeast  Level Estimated
Wed 06:08:00 PM 45.5387 20.7598 123° Southeast  Level Estimated
Wed 06:09:00 PM 45.4757 20.8975 123° Southeast  Level Estimated
Wed 06:10:00 PM 45.4125 21.0350 123° Southeast  Level Estimated
Wed 06:11:00 PM 45.3491 21.1721 123° Southeast  Level Estimated
Wed 06:12:00 PM 45.2855 21.3089 123° Southeast  Level Estimated
Wed 06:13:00 PM 45.2218 21.4454 123° Southeast  Level Estimated
Wed 06:14:00 PM 45.1580 21.5817 124° Southeast  Level Estimated
Wed 06:15:00 PM 45.0939 21.7176 124° Southeast  Level Estimated
Wed 06:16:00 PM 45.0298 21.8532 124° Southeast  Level Estimated
Wed 06:17:00 PM 44.9654 21.9884 124° Southeast  Level Estimated
Wed 06:18:00 PM 44.9009 22.1234 124° Southeast  Level Estimated
Wed 06:19:00 PM 44.8362 22.2581 124° Southeast  Level Estimated
Wed 06:20:00 PM 44.7714 22.3925 124° Southeast  Level Estimated
Wed 06:21:00 PM 44.7064 22.5266 124° Southeast  Level Estimated
Wed 06:22:00 PM 44.6413 22.6604 124° Southeast  Level Estimated
Wed 06:23:00 PM 44.5760 22.7939 124° Southeast  Level Estimated
Wed 06:24:00 PM 44.5105 22.9270 125° Southeast  Level Estimated
Wed 06:25:00 PM 44.4449 23.0599 125° Southeast  Level Estimated
Wed 06:26:00 PM 44.3791 23.1925 125° Southeast  Level Estimated
Wed 06:27:00 PM 44.3132 23.3248 125° Southeast  Level Estimated
Wed 06:28:00 PM 44.2472 23.4568 125° Southeast  Level Estimated
Wed 06:29:00 PM 44.1809 23.5885 125° Southeast  Level Estimated
Wed 06:30:00 PM 44.1146 23.7199 125° Southeast  Level Estimated
Wed 06:31:00 PM 44.0480 23.8510 125° Southeast  Level Estimated
Wed 06:32:00 PM 43.9814 23.9818 125° Southeast  Level Estimated
Wed 06:33:00 PM 43.9146 24.1123 125° Southeast  Level Estimated
Wed 06:34:00 PM 43.8476 24.2425 125° Southeast  Level Estimated
Wed 06:35:00 PM 43.7805 24.3724 126° Southeast  Level Estimated
Wed 06:36:00 PM 43.7132 24.5021 126° Southeast  Level Estimated
Wed 06:37:00 PM 43.6458 24.6314 126° Southeast  Level Estimated
Wed 06:38:00 PM 43.5783 24.7605 126° Southeast  Level Estimated
Wed 06:39:00 PM 43.5106 24.8893 126° Southeast  Level Estimated
Wed 06:40:00 PM 43.4427 25.0177 126° Southeast  Level Estimated
Wed 06:41:00 PM 43.3747 25.1459 126° Southeast  Level Estimated
Wed 06:42:00 PM 43.3066 25.2738 126° Southeast  Level Estimated
Wed 06:43:00 PM 43.2383 25.4015 126° Southeast  Level Estimated
Wed 06:44:00 PM 43.1699 25.5288 126° Southeast  Level Estimated
Wed 06:45:00 PM 43.1014 25.6558 126° Southeast  Level Estimated
Wed 06:46:00 PM 43.0327 25.7826 127° Southeast  Level Estimated
Wed 06:47:00 PM 42.9638 25.9091 127° Southeast  Level Estimated
Wed 06:48:00 PM 42.8949 26.0353 127° Southeast  Level Estimated
Wed 06:49:00 PM 42.8258 26.1612 127° Southeast  Level Estimated
Wed 06:50:00 PM 42.7565 26.2868 127° Southeast  Level Estimated
Wed 06:51:00 PM 42.6871 26.4121 127° Southeast  Level Estimated
Wed 06:52:00 PM 42.6176 26.5372 127° Southeast  Level Estimated
Wed 06:53:00 PM 42.5479 26.6620 127° Southeast  Level Estimated
Wed 06:54:00 PM 42.4781 26.7865 127° Southeast  Level Estimated
Wed 06:55:00 PM 42.4082 26.9107 127° Southeast  Level Estimated
Wed 06:56:00 PM 42.3382 27.0347 127° Southeast  Level Estimated
Wed 06:57:00 PM 42.2680 27.1584 127° Southeast  Level Estimated
Wed 06:58:00 PM 42.1976 27.2818 128° Southeast  Level Estimated
Wed 06:59:00 PM 42.1272 27.4049 128° Southeast  Level Estimated
Wed 07:00:00 PM 42.0566 27.5278 128° Southeast  Level Estimated
Wed 07:01:00 PM 41.9859 27.6504 128° Southeast  Level Estimated
Wed 07:02:00 PM 41.9150 27.7727 128° Southeast  Level Estimated
Wed 07:03:00 PM 41.8440 27.8947 128° Southeast  Level Estimated
Wed 07:04:00 PM 41.7729 28.0165 128° Southeast  Level Estimated
Wed 07:05:00 PM 41.7017 28.1380 128° Southeast  Level Estimated
Wed 07:06:00 PM 41.6303 28.2592 128° Southeast  Level Estimated
Wed 07:07:00 PM 41.5588 28.3802 128° Southeast  Level Estimated
Wed 07:08:00 PM 41.4872 28.5009 128° Southeast  Level Estimated
Wed 07:09:00 PM 41.4155 28.6213 128° Southeast  Level Estimated
Wed 07:10:00 PM 41.3436 28.7414 129° Southeast  Level Estimated
Wed 07:11:00 PM 41.2716 28.8613 129° Southeast  Level Estimated
Wed 07:12:00 PM 41.1995 28.9810 129° Southeast  Level Estimated
Wed 07:13:00 PM 41.1273 29.1003 129° Southeast  Level Estimated
Wed 07:14:00 PM 41.0549 29.2195 129° Southeast  Level Estimated
Wed 07:15:00 PM 40.9824 29.3383 129° Southeast  Level Estimated
Wed 07:16:00 PM 40.9098 29.4569 129° Southeast  Level Estimated
Wed 07:17:00 PM 40.8371 29.5752 129° Southeast  Level Estimated
Wed 07:18:00 PM 40.7642 29.6933 129° Southeast  Level Estimated
Wed 07:19:00 PM 40.6912 29.8111 129° Southeast  Level Estimated
Wed 07:20:00 PM 40.6182 29.9286 129° Southeast  Level Estimated
Wed 07:21:00 PM 40.5449 30.0459 129° Southeast  Level Estimated
Wed 07:22:00 PM 40.4716 30.1629 129° Southeast  Level Estimated
Wed 07:23:00 PM 40.3982 30.2797 130° Southeast  Level Estimated
Wed 07:24:00 PM 40.3246 30.3962 130° Southeast  Level Estimated
Wed 07:25:00 PM 40.2509 30.5125 130° Southeast  Level Estimated
Wed 07:26:00 PM 40.1771 30.6285 130° Southeast  Level Estimated
Wed 07:27:00 PM 40.1032 30.7443 130° Southeast  Level Estimated
Wed 07:28:00 PM 40.0292 30.8598 130° Southeast  Level Estimated
Wed 07:29:00 PM 39.9551 30.9750 130° Southeast  Level Estimated
Wed 07:30:00 PM 39.8808 31.0900 130° Southeast  Level Estimated
Wed 07:31:00 PM 39.8064 31.2048 130° Southeast  Level Estimated
Wed 07:32:00 PM 39.7319 31.3193 130° Southeast  Level Estimated
Wed 07:33:00 PM 39.6574 31.4336 130° Southeast  Level Estimated
Wed 07:34:00 PM 39.5827 31.5476 130° Southeast  Level Estimated
Wed 07:35:00 PM 39.5078 31.6614 130° Southeast  Level Estimated
Wed 07:36:00 PM 39.4329 31.7749 130° Southeast  Level Estimated
Wed 07:37:00 PM 39.3579 31.8882 131° Southeast  Level Estimated
Wed 07:38:00 PM 39.2827 32.0012 131° Southeast  Level Estimated
Wed 07:39:00 PM 39.2075 32.1140 131° Southeast  Level Estimated
Wed 07:40:00 PM 39.1321 32.2266 131° Southeast  Level Estimated
Wed 07:41:00 PM 39.0566 32.3389 131° Southeast  Level Estimated
Wed 07:42:00 PM 38.9811 32.4510 131° Southeast  Level Estimated
Wed 07:43:00 PM 38.9054 32.5628 131° Southeast  Level Estimated
Wed 07:44:00 PM 38.8296 32.6744 131° Southeast  Level Estimated
Wed 07:45:00 PM 38.7537 32.7858 131° Southeast  Level Estimated
Wed 07:46:00 PM 38.6777 32.8969 131° Southeast  Level Estimated
Wed 07:47:00 PM 38.6016 33.0078 131° Southeast  Level Estimated
Wed 07:48:00 PM 38.5254 33.1185 131° Southeast  Level Estimated
Wed 07:49:00 PM 38.4490 33.2289 131° Southeast  Level Estimated
Wed 07:50:00 PM 38.3726 33.3391 131° Southeast  Level Estimated
Wed 07:51:00 PM 38.2961 33.4490 132° Southeast  Level Estimated
Wed 07:52:00 PM 38.2195 33.5587 132° Southeast  Level Estimated
Wed 07:53:00 PM 38.1427 33.6682 132° Southeast  Level Estimated
Wed 07:54:00 PM 38.0659 33.7775 132° Southeast  Level Estimated
Wed 07:55:00 PM 37.9890 33.8865 132° Southeast  Level Estimated
Wed 07:56:00 PM 37.9119 33.9953 132° Southeast  Level Estimated
Wed 07:57:00 PM 37.8348 34.1039 132° Southeast  Level Estimated
Wed 07:58:00 PM 37.7576 34.2122 132° Southeast  Level Estimated
Wed 07:59:00 PM 37.6803 34.3204 132° Southeast  Level Estimated
Wed 08:00:00 PM 37.6028 34.4283 132° Southeast  Level Estimated
Wed 08:01:00 PM 37.5253 34.5359 132° Southeast  Level Estimated
Wed 08:02:00 PM 37.4477 34.6434 132° Southeast  Level Estimated
Wed 08:03:00 PM 37.3700 34.7506 132° Southeast  Level Estimated
Wed 08:04:00 PM 37.2921 34.8576 132° Southeast  Level Estimated
Wed 08:05:00 PM 37.2142 34.9644 132° Southeast  Level Estimated
Wed 08:06:00 PM 37.1362 35.0709 133° Southeast  Level Estimated
Wed 08:07:00 PM 37.0581 35.1773 133° Southeast  Level Estimated
Wed 08:08:00 PM 36.9822 35.2804 133° Southeast  Level Estimated
Wed 08:09:00 PM 36.9822 35.2804 202° Southwest  Level Estimated
Wed 08:10:00 PM 36.9822 35.2804 202° Southwest  Level Estimated
Wed 08:11:00 PM 36.9822 35.2804 202° Southwest  Level Estimated
Wed 08:12:00 PM 36.9822 35.2804 202° Southwest  Level Estimated
Wed 08:13:00 PM 36.9822 35.2804 202° Southwest  Level Estimated
Wed 08:14:00 PM 36.9822 35.2804 202° Southwest  Level Estimated
Wed 08:15:00 PM 36.9822 35.2804 202° Southwest  Level Estimated
Wed 08:16:00 PM 36.9822 35.2804 202° Southwest  Level Estimated
Wed 08:17:00 PM 36.9822 35.2804 202° Southwest  Level Estimated
Wed 08:18:00 PM 36.9822 35.2804 202° Southwest  Level Estimated
Wed 08:19:00 PM 36.9822 35.2804 202° Southwest  Level Estimated
Wed 08:20:00 PM 36.9822 35.2804 202° Southwest  Level Estimated
Wed 08:21:00 PM 36.9822 35.2804 202° Southwest  Level Estimated
Wed 08:22:00 PM 36.9822 35.2804 202° Southwest  Level Estimated
Wed 08:23:00 PM 36.9822 35.2804 202° Southwest  Level Estimated
Wed 08:24:00 PM 36.9822 35.2804 202° Southwest  Level Estimated

Login

Don't have an account? Register now (free) for customized features, flight alerts, and more!